sensor_id;sensor_type;location;lat;lon;timestamp;temperature;humidity
37984;DHT22;64625;50.882;4.376;2022-12-18T00:01:05;-1.00;99.90
37984;DHT22;64625;50.882;4.376;2022-12-18T00:03:35;-1.00;99.90
37984;DHT22;64625;50.882;4.376;2022-12-18T00:06:01;-1.00;99.90
37984;DHT22;64625;50.882;4.376;2022-12-18T00:08:27;-1.00;99.90
37984;DHT22;64625;50.882;4.376;2022-12-18T00:10:54;-1.00;99.90
37984;DHT22;64625;50.882;4.376;2022-12-18T00:13:20;-1.00;99.90
37984;DHT22;64625;50.882;4.376;2022-12-18T00:15:46;-1.00;99.90
37984;DHT22;64625;50.882;4.376;2022-12-18T00:18:12;-1.00;99.90
37984;DHT22;64625;50.882;4.376;2022-12-18T00:20:39;-1.00;99.90
37984;DHT22;64625;50.882;4.376;2022-12-18T00:23:06;-1.10;99.90
37984;DHT22;64625;50.882;4.376;2022-12-18T00:25:36;-1.10;99.90
37984;DHT22;64625;50.882;4.376;2022-12-18T00:28:05;-1.10;99.90
37984;DHT22;64625;50.882;4.376;2022-12-18T00:30:30;-1.20;99.90
37984;DHT22;64625;50.882;4.376;2022-12-18T00:32:57;-1.20;99.90
37984;DHT22;64625;50.882;4.376;2022-12-18T00:35:23;-1.20;99.90
37984;DHT22;64625;50.882;4.376;2022-12-18T00:37:48;-1.20;99.90
37984;DHT22;64625;50.882;4.376;2022-12-18T00:40:14;-1.20;99.90
37984;DHT22;64625;50.882;4.376;2022-12-18T00:42:40;-1.30;99.90
37984;DHT22;64625;50.882;4.376;2022-12-18T00:45:26;-1.30;99.90
37984;DHT22;64625;50.882;4.376;2022-12-18T00:47:52;-1.30;99.90
37984;DHT22;64625;50.882;4.376;2022-12-18T00:50:19;-1.30;99.90
37984;DHT22;64625;50.882;4.376;2022-12-18T00:52:44;-1.30;99.90
37984;DHT22;64625;50.882;4.376;2022-12-18T00:55:12;-1.30;99.90
37984;DHT22;64625;50.882;4.376;2022-12-18T00:57:38;-1.30;99.90
37984;DHT22;64625;50.882;4.376;2022-12-18T01:00:05;-1.40;99.90
37984;DHT22;64625;50.882;4.376;2022-12-18T01:02:31;-1.40;99.90
37984;DHT22;64625;50.882;4.376;2022-12-18T01:04:57;-1.40;99.90
37984;DHT22;64625;50.882;4.376;2022-12-18T01:07:22;-1.50;99.90
37984;DHT22;64625;50.882;4.376;2022-12-18T01:09:48;-1.50;99.90
37984;DHT22;64625;50.882;4.376;2022-12-18T01:12:14;-1.50;99.90
37984;DHT22;64625;50.882;4.376;2022-12-18T01:14:40;-1.50;99.90
37984;DHT22;64625;50.882;4.376;2022-12-18T01:17:06;-1.50;99.90
37984;DHT22;64625;50.882;4.376;2022-12-18T01:19:32;-1.60;99.90
37984;DHT22;64625;50.882;4.376;2022-12-18T01:21:58;-1.60;99.90
37984;DHT22;64625;50.882;4.376;2022-12-18T01:24:24;-1.60;99.90
37984;DHT22;64625;50.882;4.376;2022-12-18T01:26:49;-1.70;99.90
37984;DHT22;64625;50.882;4.376;2022-12-18T01:29:15;-1.70;99.90
37984;DHT22;64625;50.882;4.376;2022-12-18T01:31:43;-1.70;99.90
37984;DHT22;64625;50.882;4.376;2022-12-18T01:34:09;-1.80;99.90
37984;DHT22;64625;50.882;4.376;2022-12-18T01:36:37;-1.80;99.90
37984;DHT22;64625;50.882;4.376;2022-12-18T01:39:12;-1.80;99.90
37984;DHT22;64625;50.882;4.376;2022-12-18T01:41:39;-1.90;99.90
37984;DHT22;64625;50.882;4.376;2022-12-18T01:47:49;-1.90;99.90
37984;DHT22;64625;50.882;4.376;2022-12-18T01:50:21;-1.90;99.90
37984;DHT22;64625;50.882;4.376;2022-12-18T01:52:59;-1.90;99.90
37984;DHT22;64625;50.882;4.376;2022-12-18T01:55:29;-1.90;99.90
37984;DHT22;64625;50.882;4.376;2022-12-18T01:57:58;-1.90;99.90
37984;DHT22;64625;50.882;4.376;2022-12-18T02:00:25;-1.90;99.90
37984;DHT22;64625;50.882;4.376;2022-12-18T02:02:53;-1.90;99.90
37984;DHT22;64625;50.882;4.376;2022-12-18T02:05:54;-1.90;99.90
37984;DHT22;64625;50.882;4.376;2022-12-18T02:08:27;-1.90;99.90
37984;DHT22;64625;50.882;4.376;2022-12-18T02:11:24;-1.90;99.90
37984;DHT22;64625;50.882;4.376;2022-12-18T02:14:04;-1.90;99.90
37984;DHT22;64625;50.882;4.376;2022-12-18T02:24:54;-2.00;99.90
37984;DHT22;64625;50.882;4.376;2022-12-18T02:27:23;-2.00;99.90
37984;DHT22;64625;50.882;4.376;2022-12-18T02:29:56;-2.10;99.90
37984;DHT22;64625;50.882;4.376;2022-12-18T02:32:26;-2.10;99.90
37984;DHT22;64625;50.882;4.376;2022-12-18T02:34:56;-2.10;99.90
37984;DHT22;64625;50.882;4.376;2022-12-18T02:37:23;-2.20;99.90
37984;DHT22;64625;50.882;4.376;2022-12-18T02:39:53;-2.20;99.90
37984;DHT22;64625;50.882;4.376;2022-12-18T02:42:20;-2.20;99.90
37984;DHT22;64625;50.882;4.376;2022-12-18T02:44:48;-2.20;99.90
37984;DHT22;64625;50.882;4.376;2022-12-18T02:47:16;-2.20;99.90
37984;DHT22;64625;50.882;4.376;2022-12-18T02:50:05;-2.20;99.90
37984;DHT22;64625;50.882;4.376;2022-12-18T02:55:57;-2.20;99.90
37984;DHT22;64625;50.882;4.376;2022-12-18T02:58:49;-2.20;99.90
37984;DHT22;64625;50.882;4.376;2022-12-18T03:01:20;-2.20;99.90
37984;DHT22;64625;50.882;4.376;2022-12-18T03:06:56;-2.30;99.90
37984;DHT22;64625;50.882;4.376;2022-12-18T03:09:33;-2.30;99.90
37984;DHT22;64625;50.882;4.376;2022-12-18T03:17:52;-2.40;99.90
37984;DHT22;64625;50.882;4.376;2022-12-18T03:20:22;-2.40;99.90
37984;DHT22;64625;50.882;4.376;2022-12-18T03:22:53;-2.40;99.90
37984;DHT22;64625;50.882;4.376;2022-12-18T03:25:22;-2.40;99.90
37984;DHT22;64625;50.882;4.376;2022-12-18T03:27:52;-2.40;99.90
37984;DHT22;64625;50.882;4.376;2022-12-18T03:30:20;-2.40;99.90
37984;DHT22;64625;50.882;4.376;2022-12-18T03:33:00;-2.40;99.90
37984;DHT22;64625;50.882;4.376;2022-12-18T03:35:31;-2.40;99.90
37984;DHT22;64625;50.882;4.376;2022-12-18T03:37:58;-2.40;99.90
37984;DHT22;64625;50.882;4.376;2022-12-18T03:40:35;-2.40;99.90
37984;DHT22;64625;50.882;4.376;2022-12-18T03:43:11;-2.40;99.90
37984;DHT22;64625;50.882;4.376;2022-12-18T03:45:50;-2.40;99.90
37984;DHT22;64625;50.882;4.376;2022-12-18T03:48:21;-2.40;99.90
37984;DHT22;64625;50.882;4.376;2022-12-18T03:51:02;-2.40;99.90
37984;DHT22;64625;50.882;4.376;2022-12-18T03:56:04;-2.50;99.90
37984;DHT22;64625;50.882;4.376;2022-12-18T03:58:32;-2.50;99.90
37984;DHT22;64625;50.882;4.376;2022-12-18T04:01:02;-2.60;99.90
37984;DHT22;64625;50.882;4.376;2022-12-18T04:03:29;-2.60;99.90
37984;DHT22;64625;50.882;4.376;2022-12-18T04:05:59;-2.60;99.90
37984;DHT22;64625;50.882;4.376;2022-12-18T04:08:26;-2.60;99.90
37984;DHT22;64625;50.882;4.376;2022-12-18T04:10:52;-2.70;99.90
37984;DHT22;64625;50.882;4.376;2022-12-18T04:13:28;-2.70;99.90
37984;DHT22;64625;50.882;4.376;2022-12-18T04:15:54;-2.70;99.90
37984;DHT22;64625;50.882;4.376;2022-12-18T04:18:20;-2.80;99.90
37984;DHT22;64625;50.882;4.376;2022-12-18T04:20:46;-2.80;99.90
37984;DHT22;64625;50.882;4.376;2022-12-18T04:23:12;-2.80;99.90
37984;DHT22;64625;50.882;4.376;2022-12-18T04:25:38;-2.80;99.90
37984;DHT22;64625;50.882;4.376;2022-12-18T04:28:03;-2.80;99.90
37984;DHT22;64625;50.882;4.376;2022-12-18T04:30:29;-2.70;99.90
37984;DHT22;64625;50.882;4.376;2022-12-18T04:32:55;-2.80;99.90
37984;DHT22;64625;50.882;4.376;2022-12-18T04:35:21;-2.70;99.90
37984;DHT22;64625;50.882;4.376;2022-12-18T04:37:46;-2.80;99.90
37984;DHT22;64625;50.882;4.376;2022-12-18T04:40:12;-2.80;99.90
37984;DHT22;64625;50.882;4.376;2022-12-18T04:42:39;-2.80;99.90
37984;DHT22;64625;50.882;4.376;2022-12-18T04:45:06;-2.80;99.90
37984;DHT22;64625;50.882;4.376;2022-12-18T04:47:32;-2.80;99.90
37984;DHT22;64625;50.882;4.376;2022-12-18T04:49:58;-2.80;99.90
37984;DHT22;64625;50.882;4.376;2022-12-18T04:52:24;-2.80;99.90
37984;DHT22;64625;50.882;4.376;2022-12-18T04:54:50;-2.80;99.90
37984;DHT22;64625;50.882;4.376;2022-12-18T04:57:16;-2.90;99.90
37984;DHT22;64625;50.882;4.376;2022-12-18T04:59:43;-2.90;99.90
37984;DHT22;64625;50.882;4.376;2022-12-18T05:02:09;-2.90;99.90
37984;DHT22;64625;50.882;4.376;2022-12-18T05:04:35;-2.90;99.90
37984;DHT22;64625;50.882;4.376;2022-12-18T05:07:01;-2.90;99.90
37984;DHT22;64625;50.882;4.376;2022-12-18T05:09:26;-2.90;99.90
37984;DHT22;64625;50.882;4.376;2022-12-18T05:11:52;-2.90;99.90
37984;DHT22;64625;50.882;4.376;2022-12-18T05:14:18;-2.90;99.90
37984;DHT22;64625;50.882;4.376;2022-12-18T05:16:43;-2.90;99.90
37984;DHT22;64625;50.882;4.376;2022-12-18T05:19:10;-2.90;99.90
37984;DHT22;64625;50.882;4.376;2022-12-18T05:21:36;-2.90;99.90
37984;DHT22;64625;50.882;4.376;2022-12-18T05:24:02;-2.90;99.90
37984;DHT22;64625;50.882;4.376;2022-12-18T05:26:28;-2.90;99.90
37984;DHT22;64625;50.882;4.376;2022-12-18T05:28:54;-2.90;99.90
37984;DHT22;64625;50.882;4.376;2022-12-18T05:31:20;-3.00;99.90
37984;DHT22;64625;50.882;4.376;2022-12-18T05:33:45;-3.00;99.90
37984;DHT22;64625;50.882;4.376;2022-12-18T05:36:11;-3.00;99.90
37984;DHT22;64625;50.882;4.376;2022-12-18T05:38:38;-3.00;99.90
37984;DHT22;64625;50.882;4.376;2022-12-18T05:41:05;-3.00;99.90
37984;DHT22;64625;50.882;4.376;2022-12-18T05:43:33;-3.00;99.90
37984;DHT22;64625;50.882;4.376;2022-12-18T05:46:07;-3.00;99.90
37984;DHT22;64625;50.882;4.376;2022-12-18T05:48:33;-3.00;99.90
37984;DHT22;64625;50.882;4.376;2022-12-18T05:51:07;-2.90;99.90
37984;DHT22;64625;50.882;4.376;2022-12-18T05:53:34;-3.00;99.90
37984;DHT22;64625;50.882;4.376;2022-12-18T05:56:05;-3.00;99.90
37984;DHT22;64625;50.882;4.376;2022-12-18T05:58:31;-3.00;99.90
37984;DHT22;64625;50.882;4.376;2022-12-18T06:00:58;-3.00;99.90
37984;DHT22;64625;50.882;4.376;2022-12-18T06:03:30;-3.00;99.90
37984;DHT22;64625;50.882;4.376;2022-12-18T06:05:56;-3.00;99.90
37984;DHT22;64625;50.882;4.376;2022-12-18T06:08:22;-3.00;99.90
37984;DHT22;64625;50.882;4.376;2022-12-18T06:10:51;-3.00;99.90
37984;DHT22;64625;50.882;4.376;2022-12-18T06:13:21;-3.00;99.90
37984;DHT22;64625;50.882;4.376;2022-12-18T06:15:47;-3.00;99.90
37984;DHT22;64625;50.882;4.376;2022-12-18T06:18:12;-3.00;99.90
37984;DHT22;64625;50.882;4.376;2022-12-18T06:20:39;-3.00;99.90
37984;DHT22;64625;50.882;4.376;2022-12-18T06:23:07;-3.00;99.90
37984;DHT22;64625;50.882;4.376;2022-12-18T06:25:33;-3.00;99.90
37984;DHT22;64625;50.882;4.376;2022-12-18T06:27:59;-3.00;99.90
37984;DHT22;64625;50.882;4.376;2022-12-18T06:30:25;-2.90;99.90
37984;DHT22;64625;50.882;4.376;2022-12-18T06:32:50;-3.00;99.90
37984;DHT22;64625;50.882;4.376;2022-12-18T06:35:18;-3.00;99.90
37984;DHT22;64625;50.882;4.376;2022-12-18T06:37:44;-3.00;99.90
37984;DHT22;64625;50.882;4.376;2022-12-18T06:40:10;-3.00;99.90
37984;DHT22;64625;50.882;4.376;2022-12-18T06:42:36;-3.00;99.90
37984;DHT22;64625;50.882;4.376;2022-12-18T06:45:01;-2.90;99.90
37984;DHT22;64625;50.882;4.376;2022-12-18T06:47:27;-3.00;99.90
37984;DHT22;64625;50.882;4.376;2022-12-18T06:49:53;-3.00;99.90
37984;DHT22;64625;50.882;4.376;2022-12-18T06:52:22;-2.90;99.90
37984;DHT22;64625;50.882;4.376;2022-12-18T06:54:47;-3.00;99.90
37984;DHT22;64625;50.882;4.376;2022-12-18T06:57:13;-3.00;99.90
37984;DHT22;64625;50.882;4.376;2022-12-18T06:59:39;-2.90;99.90
37984;DHT22;64625;50.882;4.376;2022-12-18T07:02:05;-2.90;99.90
37984;DHT22;64625;50.882;4.376;2022-12-18T07:04:31;-2.90;99.90
37984;DHT22;64625;50.882;4.376;2022-12-18T07:06:57;-3.00;99.90
37984;DHT22;64625;50.882;4.376;2022-12-18T07:09:24;-3.00;99.90
37984;DHT22;64625;50.882;4.376;2022-12-18T07:11:50;-2.90;99.90
37984;DHT22;64625;50.882;4.376;2022-12-18T07:14:15;-2.90;99.90
37984;DHT22;64625;50.882;4.376;2022-12-18T07:16:41;-3.00;99.90
37984;DHT22;64625;50.882;4.376;2022-12-18T07:19:07;-3.00;99.90
37984;DHT22;64625;50.882;4.376;2022-12-18T07:21:32;-3.00;99.90
37984;DHT22;64625;50.882;4.376;2022-12-18T07:23:58;-2.90;99.90
37984;DHT22;64625;50.882;4.376;2022-12-18T07:26:24;-2.90;99.90
37984;DHT22;64625;50.882;4.376;2022-12-18T07:28:55;-2.90;99.90
37984;DHT22;64625;50.882;4.376;2022-12-18T07:31:22;-2.90;99.90
37984;DHT22;64625;50.882;4.376;2022-12-18T07:33:48;-2.90;99.90
37984;DHT22;64625;50.882;4.376;2022-12-18T07:36:14;-3.00;99.90
37984;DHT22;64625;50.882;4.376;2022-12-18T07:38:40;-3.00;99.90
37984;DHT22;64625;50.882;4.376;2022-12-18T07:41:12;-3.00;99.90
37984;DHT22;64625;50.882;4.376;2022-12-18T07:43:39;-3.00;99.90
37984;DHT22;64625;50.882;4.376;2022-12-18T07:46:06;-3.00;99.90
37984;DHT22;64625;50.882;4.376;2022-12-18T07:48:35;-3.00;99.90
37984;DHT22;64625;50.882;4.376;2022-12-18T07:51:02;-3.10;99.90
37984;DHT22;64625;50.882;4.376;2022-12-18T07:53:29;-3.10;99.90
37984;DHT22;64625;50.882;4.376;2022-12-18T07:55:57;-3.10;99.90
37984;DHT22;64625;50.882;4.376;2022-12-18T07:58:23;-3.10;99.90
37984;DHT22;64625;50.882;4.376;2022-12-18T08:00:48;-3.10;99.90
37984;DHT22;64625;50.882;4.376;2022-12-18T08:03:14;-3.10;99.90
37984;DHT22;64625;50.882;4.376;2022-12-18T08:05:40;-3.10;99.90
37984;DHT22;64625;50.882;4.376;2022-12-18T08:08:06;-3.10;99.90
37984;DHT22;64625;50.882;4.376;2022-12-18T08:10:31;-3.10;99.90
37984;DHT22;64625;50.882;4.376;2022-12-18T08:12:57;-3.10;99.90
37984;DHT22;64625;50.882;4.376;2022-12-18T08:15:23;-3.10;99.90
37984;DHT22;64625;50.882;4.376;2022-12-18T08:17:49;-3.10;99.90
37984;DHT22;64625;50.882;4.376;2022-12-18T08:20:17;-3.10;99.90
37984;DHT22;64625;50.882;4.376;2022-12-18T08:22:44;-3.10;99.90
37984;DHT22;64625;50.882;4.376;2022-12-18T08:25:10;-3.00;99.90
37984;DHT22;64625;50.882;4.376;2022-12-18T08:27:36;-3.00;99.90
37984;DHT22;64625;50.882;4.376;2022-12-18T08:30:03;-2.90;99.90
37984;DHT22;64625;50.882;4.376;2022-12-18T08:32:29;-2.90;99.90
37984;DHT22;64625;50.882;4.376;2022-12-18T08:34:55;-2.80;99.90
37984;DHT22;64625;50.882;4.376;2022-12-18T08:37:21;-2.70;99.90
37984;DHT22;64625;50.882;4.376;2022-12-18T08:39:47;-2.70;99.90
37984;DHT22;64625;50.882;4.376;2022-12-18T08:42:15;-2.70;99.90
37984;DHT22;64625;50.882;4.376;2022-12-18T08:45:01;-2.60;99.90
37984;DHT22;64625;50.882;4.376;2022-12-18T08:47:29;-2.50;99.90
37984;DHT22;64625;50.882;4.376;2022-12-18T08:49:55;-2.50;99.90
37984;DHT22;64625;50.882;4.376;2022-12-18T08:52:21;-2.40;99.90
37984;DHT22;64625;50.882;4.376;2022-12-18T08:54:47;-2.40;99.90
37984;DHT22;64625;50.882;4.376;2022-12-18T08:57:13;-2.40;99.90
37984;DHT22;64625;50.882;4.376;2022-12-18T08:59:39;-2.40;99.90
37984;DHT22;64625;50.882;4.376;2022-12-18T09:02:04;-2.30;99.90
37984;DHT22;64625;50.882;4.376;2022-12-18T09:04:30;-2.30;99.90
37984;DHT22;64625;50.882;4.376;2022-12-18T09:06:56;-2.30;99.90
37984;DHT22;64625;50.882;4.376;2022-12-18T09:09:22;-2.30;99.90
37984;DHT22;64625;50.882;4.376;2022-12-18T09:11:47;-2.20;99.90
37984;DHT22;64625;50.882;4.376;2022-12-18T09:14:13;-2.20;99.90
37984;DHT22;64625;50.882;4.376;2022-12-18T09:16:39;-2.10;99.90
37984;DHT22;64625;50.882;4.376;2022-12-18T09:19:05;-2.10;99.90
37984;DHT22;64625;50.882;4.376;2022-12-18T09:21:33;-2.00;99.90
37984;DHT22;64625;50.882;4.376;2022-12-18T09:23:59;-2.00;99.90
37984;DHT22;64625;50.882;4.376;2022-12-18T09:26:26;-1.90;99.90
37984;DHT22;64625;50.882;4.376;2022-12-18T09:28:53;-1.90;99.90
37984;DHT22;64625;50.882;4.376;2022-12-18T09:31:21;-1.80;99.90
37984;DHT22;64625;50.882;4.376;2022-12-18T09:33:47;-1.80;99.90
37984;DHT22;64625;50.882;4.376;2022-12-18T09:36:15;-1.70;99.90
37984;DHT22;64625;50.882;4.376;2022-12-18T09:38:42;-1.70;99.90
37984;DHT22;64625;50.882;4.376;2022-12-18T09:43:55;-1.60;99.90
37984;DHT22;64625;50.882;4.376;2022-12-18T09:46:53;-1.50;99.90
37984;DHT22;64625;50.882;4.376;2022-12-18T09:49:23;-1.40;99.90
37984;DHT22;64625;50.882;4.376;2022-12-18T09:51:54;-1.40;99.90
37984;DHT22;64625;50.882;4.376;2022-12-18T09:54:41;-1.30;99.90
37984;DHT22;64625;50.882;4.376;2022-12-18T09:57:35;-1.30;99.90
37984;DHT22;64625;50.882;4.376;2022-12-18T10:00:22;-1.10;99.90
37984;DHT22;64625;50.882;4.376;2022-12-18T10:02:55;-1.00;99.90
37984;DHT22;64625;50.882;4.376;2022-12-18T10:28:12;-0.20;99.90
37984;DHT22;64625;50.882;4.376;2022-12-18T10:30:42;-0.10;99.90
37984;DHT22;64625;50.882;4.376;2022-12-18T10:33:13;0.00;99.90
37984;DHT22;64625;50.882;4.376;2022-12-18T10:35:41;0.00;99.90
37984;DHT22;64625;50.882;4.376;2022-12-18T10:40:49;0.20;99.90
37984;DHT22;64625;50.882;4.376;2022-12-18T10:43:24;0.20;99.90
37984;DHT22;64625;50.882;4.376;2022-12-18T10:48:32;0.40;99.90
37984;DHT22;64625;50.882;4.376;2022-12-18T10:50:59;0.40;99.90
37984;DHT22;64625;50.882;4.376;2022-12-18T10:53:30;0.50;99.90
37984;DHT22;64625;50.882;4.376;2022-12-18T10:55:58;0.50;99.90
37984;DHT22;64625;50.882;4.376;2022-12-18T10:58:32;0.60;99.90
37984;DHT22;64625;50.882;4.376;2022-12-18T11:01:18;0.70;99.90
37984;DHT22;64625;50.882;4.376;2022-12-18T11:06:18;0.80;99.90
37984;DHT22;64625;50.882;4.376;2022-12-18T11:09:01;0.80;99.90
37984;DHT22;64625;50.882;4.376;2022-12-18T11:11:27;0.90;99.90
37984;DHT22;64625;50.882;4.376;2022-12-18T11:14:06;0.90;99.90
37984;DHT22;64625;50.882;4.376;2022-12-18T11:16:47;1.00;99.90
37984;DHT22;64625;50.882;4.376;2022-12-18T11:19:26;1.00;99.90
37984;DHT22;64625;50.882;4.376;2022-12-18T11:21:53;1.10;99.90
37984;DHT22;64625;50.882;4.376;2022-12-18T11:24:31;1.20;99.90
37984;DHT22;64625;50.882;4.376;2022-12-18T11:27:00;1.20;99.90
37984;DHT22;64625;50.882;4.376;2022-12-18T11:29:39;1.30;99.90
37984;DHT22;64625;50.882;4.376;2022-12-18T11:32:31;1.30;99.90
37984;DHT22;64625;50.882;4.376;2022-12-18T11:35:50;1.40;99.90
37984;DHT22;64625;50.882;4.376;2022-12-18T11:43:58;1.50;99.90
37984;DHT22;64625;50.882;4.376;2022-12-18T11:46:36;1.50;99.90
37984;DHT22;64625;50.882;4.376;2022-12-18T11:49:32;1.50;99.90
37984;DHT22;64625;50.882;4.376;2022-12-18T11:54:55;1.60;99.90
37984;DHT22;64625;50.882;4.376;2022-12-18T11:57:37;1.70;99.90
37984;DHT22;64625;50.882;4.376;2022-12-18T12:00:12;1.70;99.90
37984;DHT22;64625;50.882;4.376;2022-12-18T12:02:53;1.80;99.90
37984;DHT22;64625;50.882;4.376;2022-12-18T12:10:59;1.90;99.90
37984;DHT22;64625;50.882;4.376;2022-12-18T12:14:01;2.00;99.90
37984;DHT22;64625;50.882;4.376;2022-12-18T12:16:37;2.00;99.90
37984;DHT22;64625;50.882;4.376;2022-12-18T12:21:55;2.10;99.90
37984;DHT22;64625;50.882;4.376;2022-12-18T12:24:46;2.20;99.90
37984;DHT22;64625;50.882;4.376;2022-12-18T12:35:47;2.30;99.90
37984;DHT22;64625;50.882;4.376;2022-12-18T12:38:28;2.40;99.90
37984;DHT22;64625;50.882;4.376;2022-12-18T12:41:00;2.40;99.90
37984;DHT22;64625;50.882;4.376;2022-12-18T12:43:43;2.50;99.90
37984;DHT22;64625;50.882;4.376;2022-12-18T12:46:12;2.50;99.90
37984;DHT22;64625;50.882;4.376;2022-12-18T12:51:19;2.60;99.90
37984;DHT22;64625;50.882;4.376;2022-12-18T12:53:46;2.70;99.90
37984;DHT22;64625;50.882;4.376;2022-12-18T12:56:15;2.70;99.90
37984;DHT22;64625;50.882;4.376;2022-12-18T12:59:11;2.70;99.90
37984;DHT22;64625;50.882;4.376;2022-12-18T13:01:57;2.70;99.90
37984;DHT22;64625;50.882;4.376;2022-12-18T13:04:52;2.80;99.90
37984;DHT22;64625;50.882;4.376;2022-12-18T13:07:41;2.80;99.90
37984;DHT22;64625;50.882;4.376;2022-12-18T13:13:10;2.90;99.90
37984;DHT22;64625;50.882;4.376;2022-12-18T13:18:23;2.90;99.90
37984;DHT22;64625;50.882;4.376;2022-12-18T13:21:01;2.90;99.90
37984;DHT22;64625;50.882;4.376;2022-12-18T13:23:29;2.90;99.90
37984;DHT22;64625;50.882;4.376;2022-12-18T13:28:57;2.90;99.90
37984;DHT22;64625;50.882;4.376;2022-12-18T13:34:18;2.90;99.90
37984;DHT22;64625;50.882;4.376;2022-12-18T13:36:45;2.90;99.90
37984;DHT22;64625;50.882;4.376;2022-12-18T13:41:48;3.00;99.90
37984;DHT22;64625;50.882;4.376;2022-12-18T13:44:34;3.00;99.90
37984;DHT22;64625;50.882;4.376;2022-12-18T13:47:03;3.00;99.90
37984;DHT22;64625;50.882;4.376;2022-12-18T13:49:39;3.00;99.90
37984;DHT22;64625;50.882;4.376;2022-12-18T13:52:22;3.00;99.90
37984;DHT22;64625;50.882;4.376;2022-12-18T13:54:52;3.00;99.90
37984;DHT22;64625;50.882;4.376;2022-12-18T13:59:56;3.00;99.90
37984;DHT22;64625;50.882;4.376;2022-12-18T14:02:25;3.00;99.90
37984;DHT22;64625;50.882;4.376;2022-12-18T14:04:51;3.00;99.90
37984;DHT22;64625;50.882;4.376;2022-12-18T14:07:28;3.00;99.90
37984;DHT22;64625;50.882;4.376;2022-12-18T14:09:57;3.00;99.90
37984;DHT22;64625;50.882;4.376;2022-12-18T14:12:29;3.00;99.90
37984;DHT22;64625;50.882;4.376;2022-12-18T14:15:25;3.00;99.90
37984;DHT22;64625;50.882;4.376;2022-12-18T14:18:02;3.00;99.90
37984;DHT22;64625;50.882;4.376;2022-12-18T14:20:31;3.00;99.90
37984;DHT22;64625;50.882;4.376;2022-12-18T14:22:58;2.90;99.90
37984;DHT22;64625;50.882;4.376;2022-12-18T14:25:29;3.00;99.90
37984;DHT22;64625;50.882;4.376;2022-12-18T14:28:14;2.90;99.90
37984;DHT22;64625;50.882;4.376;2022-12-18T14:30:46;3.00;99.90
37984;DHT22;64625;50.882;4.376;2022-12-18T14:33:17;2.90;99.90
37984;DHT22;64625;50.882;4.376;2022-12-18T14:35:59;3.00;99.90
37984;DHT22;64625;50.882;4.376;2022-12-18T14:38:39;3.00;99.90
37984;DHT22;64625;50.882;4.376;2022-12-18T14:41:16;3.00;99.90
37984;DHT22;64625;50.882;4.376;2022-12-18T14:43:45;3.00;99.90
37984;DHT22;64625;50.882;4.376;2022-12-18T14:49:00;3.10;99.90
37984;DHT22;64625;50.882;4.376;2022-12-18T14:51:30;3.10;99.90
37984;DHT22;64625;50.882;4.376;2022-12-18T14:56:31;3.00;99.90
37984;DHT22;64625;50.882;4.376;2022-12-18T14:59:06;3.10;99.90
37984;DHT22;64625;50.882;4.376;2022-12-18T15:04:32;3.10;99.90
37984;DHT22;64625;50.882;4.376;2022-12-18T15:07:11;3.10;99.90
37984;DHT22;64625;50.882;4.376;2022-12-18T15:09:39;3.10;99.90
37984;DHT22;64625;50.882;4.376;2022-12-18T15:12:16;3.10;99.90
37984;DHT22;64625;50.882;4.376;2022-12-18T15:14:45;3.10;99.90
37984;DHT22;64625;50.882;4.376;2022-12-18T15:17:29;3.10;99.90
37984;DHT22;64625;50.882;4.376;2022-12-18T15:20:08;3.10;99.90
37984;DHT22;64625;50.882;4.376;2022-12-18T15:22:35;3.10;99.90
37984;DHT22;64625;50.882;4.376;2022-12-18T15:25:19;3.10;99.90
37984;DHT22;64625;50.882;4.376;2022-12-18T15:27:48;3.10;99.90
37984;DHT22;64625;50.882;4.376;2022-12-18T15:30:21;3.10;99.90
37984;DHT22;64625;50.882;4.376;2022-12-18T15:32:49;3.10;99.90
37984;DHT22;64625;50.882;4.376;2022-12-18T15:35:21;3.20;99.90
37984;DHT22;64625;50.882;4.376;2022-12-18T15:37:48;3.10;99.90
37984;DHT22;64625;50.882;4.376;2022-12-18T15:40:24;3.20;99.90
37984;DHT22;64625;50.882;4.376;2022-12-18T15:42:53;3.20;99.90
37984;DHT22;64625;50.882;4.376;2022-12-18T15:45:38;3.20;99.90
37984;DHT22;64625;50.882;4.376;2022-12-18T15:48:23;3.20;99.90
37984;DHT22;64625;50.882;4.376;2022-12-18T15:50:53;3.20;99.90
37984;DHT22;64625;50.882;4.376;2022-12-18T15:53:26;3.20;99.90
37984;DHT22;64625;50.882;4.376;2022-12-18T15:55:52;3.20;99.90
37984;DHT22;64625;50.882;4.376;2022-12-18T15:58:37;3.20;99.90
37984;DHT22;64625;50.882;4.376;2022-12-18T16:01:03;3.20;99.90
37984;DHT22;64625;50.882;4.376;2022-12-18T16:03:29;3.20;99.90
37984;DHT22;64625;50.882;4.376;2022-12-18T16:05:55;3.30;99.90
37984;DHT22;64625;50.882;4.376;2022-12-18T16:08:20;3.20;99.90
37984;DHT22;64625;50.882;4.376;2022-12-18T16:10:47;3.30;99.90
37984;DHT22;64625;50.882;4.376;2022-12-18T16:13:16;3.30;99.90
37984;DHT22;64625;50.882;4.376;2022-12-18T16:15:44;3.30;99.90
37984;DHT22;64625;50.882;4.376;2022-12-18T16:18:10;3.30;99.90
37984;DHT22;64625;50.882;4.376;2022-12-18T16:20:38;3.30;99.90
37984;DHT22;64625;50.882;4.376;2022-12-18T16:23:04;3.30;99.90
37984;DHT22;64625;50.882;4.376;2022-12-18T16:25:33;3.30;99.90
37984;DHT22;64625;50.882;4.376;2022-12-18T16:27:59;3.30;99.90
37984;DHT22;64625;50.882;4.376;2022-12-18T16:30:27;3.30;99.90
37984;DHT22;64625;50.882;4.376;2022-12-18T16:32:58;3.30;99.90
37984;DHT22;64625;50.882;4.376;2022-12-18T16:35:24;3.40;99.90
37984;DHT22;64625;50.882;4.376;2022-12-18T16:37:50;3.40;99.90
37984;DHT22;64625;50.882;4.376;2022-12-18T16:40:17;3.40;99.90
37984;DHT22;64625;50.882;4.376;2022-12-18T16:42:44;3.40;99.90
37984;DHT22;64625;50.882;4.376;2022-12-18T16:45:16;3.40;99.90
37984;DHT22;64625;50.882;4.376;2022-12-18T16:47:42;3.40;99.90
37984;DHT22;64625;50.882;4.376;2022-12-18T16:50:09;3.40;99.90
37984;DHT22;64625;50.882;4.376;2022-12-18T16:52:35;3.40;99.90
37984;DHT22;64625;50.882;4.376;2022-12-18T16:55:02;3.40;99.90
37984;DHT22;64625;50.882;4.376;2022-12-18T16:57:28;3.40;99.90
37984;DHT22;64625;50.882;4.376;2022-12-18T16:59:54;3.40;99.90
37984;DHT22;64625;50.882;4.376;2022-12-18T17:02:25;3.50;99.90
37984;DHT22;64625;50.882;4.376;2022-12-18T17:04:56;3.50;99.90
37984;DHT22;64625;50.882;4.376;2022-12-18T17:07:23;3.50;99.90
37984;DHT22;64625;50.882;4.376;2022-12-18T17:09:49;3.50;99.90
37984;DHT22;64625;50.882;4.376;2022-12-18T17:12:16;3.50;99.90
37984;DHT22;64625;50.882;4.376;2022-12-18T17:14:42;3.50;99.90
37984;DHT22;64625;50.882;4.376;2022-12-18T17:17:08;3.50;99.90
37984;DHT22;64625;50.882;4.376;2022-12-18T17:19:33;3.50;99.90
37984;DHT22;64625;50.882;4.376;2022-12-18T17:22:00;3.50;99.90
37984;DHT22;64625;50.882;4.376;2022-12-18T17:24:26;3.50;99.90
37984;DHT22;64625;50.882;4.376;2022-12-18T17:26:51;3.50;99.90
37984;DHT22;64625;50.882;4.376;2022-12-18T17:29:19;3.50;99.90
37984;DHT22;64625;50.882;4.376;2022-12-18T17:31:46;3.50;99.90
37984;DHT22;64625;50.882;4.376;2022-12-18T17:34:13;3.50;99.90
37984;DHT22;64625;50.882;4.376;2022-12-18T17:36:39;3.60;99.90
37984;DHT22;64625;50.882;4.376;2022-12-18T17:39:06;3.50;99.90
37984;DHT22;64625;50.882;4.376;2022-12-18T17:41:32;3.50;99.90
37984;DHT22;64625;50.882;4.376;2022-12-18T17:44:04;3.50;99.90
37984;DHT22;64625;50.882;4.376;2022-12-18T17:46:31;3.50;99.90
37984;DHT22;64625;50.882;4.376;2022-12-18T17:48:59;3.50;99.90